createdAt,value
2023-05-17T00:00:52.229Z,12.77
2023-05-17T00:03:19.602Z,12.20
2023-05-17T00:05:47.122Z,11.07
2023-05-17T00:08:14.865Z,12.77
2023-05-17T00:10:43.371Z,12.93
2023-05-17T00:13:10.858Z,17.38
2023-05-17T00:15:38.321Z,11.32
2023-05-17T00:18:05.974Z,16.70
2023-05-17T00:20:33.858Z,13.77
2023-05-17T00:23:01.165Z,18.05
2023-05-17T00:25:28.673Z,11.02
2023-05-17T00:27:56.622Z,12.27
2023-05-17T00:30:24.162Z,11.15
2023-05-17T00:32:51.573Z,10.70
2023-05-17T00:35:19.068Z,12.57
2023-05-17T00:37:48.112Z,11.25
2023-05-17T00:40:16.486Z,15.97
2023-05-17T00:42:43.992Z,14.35
2023-05-17T00:45:11.513Z,12.18
2023-05-17T00:47:39.226Z,14.65
2023-05-17T00:50:07.247Z,12.30
2023-05-17T00:52:36.083Z,12.70
2023-05-17T00:55:03.730Z,11.77
2023-05-17T00:57:32.377Z,10.07
2023-05-17T01:00:02.229Z,11.57
2023-05-17T01:02:29.919Z,11.65
2023-05-17T01:04:57.953Z,11.43
2023-05-17T01:07:25.719Z,12.15
2023-05-17T01:09:53.580Z,13.48
2023-05-17T01:12:52.103Z,13.95
2023-05-17T01:15:32.145Z,14.57
2023-05-17T01:18:10.633Z,11.27
2023-05-17T01:20:41.528Z,14.27
2023-05-17T01:23:37.120Z,13.45
2023-05-17T01:26:17.772Z,12.55
2023-05-17T01:28:53.673Z,13.32
2023-05-17T01:31:22.841Z,9.30
2023-05-17T01:33:50.828Z,7.55
2023-05-17T01:36:18.407Z,19.77
2023-05-17T01:38:45.688Z,12.15
2023-05-17T01:41:22.849Z,14.95
2023-05-17T01:44:10.172Z,13.73
2023-05-17T01:46:41.994Z,12.43
2023-05-17T01:49:15.449Z,12.80
2023-05-17T01:52:10.045Z,11.07
2023-05-17T01:54:47.392Z,13.85
2023-05-17T01:57:16.018Z,16.33
2023-05-17T01:59:47.644Z,11.27
2023-05-17T02:02:15.023Z,11.05
2023-05-17T02:04:42.563Z,10.65
2023-05-17T02:07:10.078Z,13.55
2023-05-17T02:09:37.674Z,19.88
2023-05-17T02:12:05.958Z,16.98
2023-05-17T02:14:34.705Z,12.82
2023-05-17T02:17:02.294Z,15.88
2023-05-17T02:19:29.854Z,17.02
2023-05-17T02:21:58.247Z,15.60
2023-05-17T02:24:25.693Z,15.13
2023-05-17T02:26:53.077Z,15.70
2023-05-17T02:29:21.003Z,14.75
2023-05-17T02:31:48.425Z,14.90
2023-05-17T02:34:17.246Z,18.83
2023-05-17T02:36:44.637Z,16.95
2023-05-17T02:39:13.442Z,12.10
2023-05-17T02:41:40.907Z,14.05
2023-05-17T02:44:08.403Z,19.02
2023-05-17T02:46:38.330Z,17.92
2023-05-17T02:51:33.141Z,20.83
2023-05-17T02:54:01.295Z,13.65
2023-05-17T02:56:28.601Z,20.83
2023-05-17T02:58:57.671Z,18.08
2023-05-17T03:01:25.046Z,16.42
2023-05-17T03:03:53.258Z,18.92
2023-05-17T03:06:21.334Z,23.10
2023-05-17T03:08:50.519Z,14.75
2023-05-17T03:11:17.836Z,17.67
2023-05-17T03:13:46.562Z,19.23
2023-05-17T03:16:14.336Z,13.90
2023-05-17T03:18:41.993Z,21.25
2023-05-17T03:21:09.433Z,16.77
2023-05-17T03:23:37.069Z,26.95
2023-05-17T03:26:04.630Z,19.25
2023-05-17T03:28:37.096Z,19.27
2023-05-17T03:31:05.054Z,17.33
2023-05-17T03:33:34.067Z,17.90
2023-05-17T03:36:02.066Z,19.77
2023-05-17T03:38:29.934Z,28.05
2023-05-17T03:40:57.285Z,23.85
2023-05-17T03:43:24.689Z,18.33
2023-05-17T03:45:52.202Z,21.30
2023-05-17T03:48:20.008Z,20.65
2023-05-17T03:50:47.490Z,25.55
2023-05-17T03:53:14.851Z,23.13
2023-05-17T03:55:42.853Z,24.05
2023-05-17T03:58:10.576Z,24.23
2023-05-17T04:00:37.862Z,23.83
2023-05-17T04:03:13.049Z,27.20
2023-05-17T04:05:41.578Z,23.92
2023-05-17T04:08:09.619Z,29.90
2023-05-17T04:10:36.972Z,25.73
2023-05-17T04:13:05.135Z,25.08
2023-05-17T04:15:32.552Z,32.15
2023-05-17T04:18:00.460Z,28.52
2023-05-17T04:20:28.074Z,24.23
2023-05-17T04:22:55.416Z,30.10
2023-05-17T04:25:24.917Z,28.55
2023-05-17T04:27:52.456Z,26.38
2023-05-17T04:30:21.643Z,31.60
2023-05-17T04:32:51.959Z,36.95
2023-05-17T04:35:20.069Z,25.65
2023-05-17T04:37:51.634Z,31.88
2023-05-17T04:40:21.845Z,31.30
2023-05-17T04:42:49.952Z,34.00
2023-05-17T04:45:18.366Z,32.13
2023-05-17T04:47:45.835Z,24.45
2023-05-17T04:50:15.442Z,31.83
2023-05-17T04:52:43.226Z,29.90
2023-05-17T04:55:11.814Z,29.90
2023-05-17T04:57:39.286Z,28.95
2023-05-17T05:00:10.206Z,28.63
2023-05-17T05:02:40.209Z,26.23
2023-05-17T05:05:09.711Z,26.25
2023-05-17T05:07:39.980Z,25.83
2023-05-17T05:10:09.011Z,27.30
2023-05-17T05:12:37.872Z,29.02
2023-05-17T05:15:06.555Z,27.17
2023-05-17T05:17:35.124Z,28.95
2023-05-17T05:20:02.930Z,25.00
2023-05-17T05:22:30.394Z,27.27
2023-05-17T05:24:58.912Z,28.25
2023-05-17T05:27:26.342Z,29.83
2023-05-17T05:29:55.130Z,25.75
2023-05-17T05:34:51.233Z,26.92
2023-05-17T05:37:19.672Z,25.48
2023-05-17T05:39:47.101Z,34.13
2023-05-17T05:42:14.496Z,23.63
2023-05-17T05:44:41.753Z,27.85
2023-05-17T05:47:09.775Z,24.80
2023-05-17T05:49:37.287Z,20.17
2023-05-17T05:52:05.001Z,22.83
2023-05-17T05:54:32.732Z,34.28
2023-05-17T05:57:00.868Z,23.20
2023-05-17T05:59:28.368Z,19.48
2023-05-17T06:01:57.622Z,31.13
2023-05-17T06:04:33.047Z,29.00
2023-05-17T06:07:12.082Z,29.02
2023-05-17T06:09:39.536Z,29.27
2023-05-17T06:12:08.978Z,29.45
2023-05-17T06:14:37.585Z,31.67
2023-05-17T06:17:05.078Z,24.75
2023-05-17T06:19:32.650Z,24.25
2023-05-17T06:22:00.211Z,30.20
2023-05-17T06:24:27.632Z,27.08
2023-05-17T06:26:55.018Z,21.35
2023-05-17T06:29:22.355Z,27.27
2023-05-17T06:31:49.791Z,22.80
2023-05-17T06:34:17.109Z,25.83
2023-05-17T06:36:44.419Z,22.25
2023-05-17T06:39:11.882Z,23.58
2023-05-17T06:41:39.263Z,17.60
2023-05-17T06:44:09.324Z,24.48
2023-05-17T06:46:36.606Z,27.33
2023-05-17T06:49:04.420Z,22.35
2023-05-17T06:51:31.788Z,24.70
2023-05-17T06:53:59.192Z,20.85
2023-05-17T06:56:26.880Z,26.85
2023-05-17T06:58:54.604Z,22.92
2023-05-17T07:01:22.224Z,24.45
2023-05-17T07:03:49.716Z,22.02
2023-05-17T07:06:17.272Z,24.15
2023-05-17T07:08:44.652Z,19.45
2023-05-17T07:11:11.923Z,19.20
2023-05-17T07:13:39.262Z,20.15
2023-05-17T07:16:08.544Z,20.58
2023-05-17T07:18:35.927Z,18.17
2023-05-17T07:21:03.260Z,17.33
2023-05-17T07:23:30.571Z,18.52
2023-05-17T07:25:57.934Z,19.13
2023-05-17T07:28:25.498Z,19.45
2023-05-17T07:30:52.762Z,24.85
2023-05-17T07:33:20.241Z,17.33
2023-05-17T07:35:47.526Z,16.40
2023-05-17T07:38:14.938Z,20.55
2023-05-17T07:40:42.231Z,19.17
2023-05-17T07:43:09.750Z,16.98
2023-05-17T07:45:37.057Z,14.60
2023-05-17T07:48:04.707Z,17.83
2023-05-17T07:50:32.447Z,18.20
2023-05-17T07:52:59.800Z,21.38
2023-05-17T07:55:27.268Z,17.98
2023-05-17T07:57:55.047Z,21.10
2023-05-17T08:00:22.942Z,14.32
2023-05-17T08:02:50.579Z,21.52
2023-05-17T08:05:17.866Z,16.60
2023-05-17T08:07:45.278Z,18.00
2023-05-17T08:10:12.617Z,16.95
2023-05-17T08:12:40.253Z,21.55
2023-05-17T08:15:07.696Z,17.67
2023-05-17T08:17:35.094Z,15.20
2023-05-17T08:20:02.410Z,17.38
2023-05-17T08:22:29.750Z,19.55
2023-05-17T08:24:57.083Z,20.27
2023-05-17T08:27:27.128Z,14.95
2023-05-17T08:29:55.570Z,19.27
2023-05-17T08:32:23.797Z,14.45
2023-05-17T08:34:51.149Z,19.60
2023-05-17T08:37:18.916Z,14.32
2023-05-17T08:39:46.535Z,20.27
2023-05-17T08:42:15.185Z,16.45
2023-05-17T08:44:43.425Z,21.50
2023-05-17T08:47:12.301Z,20.55
2023-05-17T08:49:43.112Z,17.23
2023-05-17T08:52:11.158Z,23.48
2023-05-17T08:54:38.803Z,19.33
2023-05-17T08:57:07.302Z,23.40
2023-05-17T08:59:35.178Z,24.23
2023-05-17T09:02:05.773Z,18.48
2023-05-17T09:04:33.396Z,18.80
2023-05-17T09:07:00.829Z,13.02
2023-05-17T09:09:28.496Z,14.98
2023-05-17T09:11:55.785Z,16.20
2023-05-17T09:14:23.314Z,14.07
2023-05-17T09:16:58.109Z,11.60
2023-05-17T09:19:25.658Z,13.38
2023-05-17T09:21:54.381Z,17.08
2023-05-17T09:24:30.262Z,18.45
2023-05-17T09:27:03.296Z,19.30
2023-05-17T09:29:32.509Z,14.02
2023-05-17T09:32:16.464Z,13.48
2023-05-17T09:34:45.857Z,12.75
2023-05-17T09:37:15.341Z,12.60
2023-05-17T09:39:44.914Z,12.02
2023-05-17T09:42:13.163Z,16.13
2023-05-17T09:44:55.548Z,12.52
2023-05-17T09:47:26.049Z,15.98
2023-05-17T09:49:53.555Z,17.25
2023-05-17T09:52:21.435Z,15.15
2023-05-17T09:54:55.740Z,13.02
2023-05-17T09:57:23.570Z,15.65
2023-05-17T09:59:51.716Z,14.73
2023-05-17T10:02:23.176Z,18.48
2023-05-17T10:04:51.752Z,14.10
2023-05-17T10:07:20.410Z,13.50
2023-05-17T10:09:49.973Z,11.93
2023-05-17T10:12:18.765Z,14.60
2023-05-17T10:14:46.169Z,16.42
2023-05-17T10:17:14.832Z,12.88
2023-05-17T10:19:42.574Z,13.55
2023-05-17T10:22:22.364Z,22.42
2023-05-17T10:24:54.139Z,12.95
2023-05-17T10:27:22.176Z,15.23
2023-05-17T10:29:50.746Z,12.50
2023-05-17T10:32:19.801Z,9.82
2023-05-17T10:34:58.030Z,14.23
2023-05-17T10:40:05.022Z,12.45
2023-05-17T10:42:32.432Z,13.63
2023-05-17T10:45:01.303Z,9.57
2023-05-17T10:47:32.944Z,14.18
2023-05-17T10:50:00.571Z,12.20
2023-05-17T10:52:27.908Z,9.77
2023-05-17T10:54:57.021Z,12.45
2023-05-17T10:57:49.266Z,8.23
2023-05-17T11:00:21.618Z,9.25
2023-05-17T11:02:50.676Z,9.15
2023-05-17T11:05:25.274Z,13.93
2023-05-17T11:07:52.788Z,10.77
2023-05-17T11:10:20.301Z,13.40
2023-05-17T11:12:54.005Z,13.38
2023-05-17T11:15:24.909Z,13.02
2023-05-17T11:17:57.004Z,10.90
2023-05-17T11:20:28.248Z,12.35
2023-05-17T11:22:58.863Z,14.02
2023-05-17T11:25:31.767Z,17.27
2023-05-17T11:27:59.804Z,7.30
2023-05-17T11:30:31.268Z,7.78
2023-05-17T11:33:00.620Z,9.20
2023-05-17T11:35:31.517Z,7.97
2023-05-17T11:38:19.554Z,7.80
2023-05-17T11:40:48.576Z,10.35
2023-05-17T11:43:18.472Z,9.30
2023-05-17T11:45:57.743Z,10.65
2023-05-17T11:48:26.781Z,8.87
2023-05-17T11:50:55.401Z,9.77
2023-05-17T11:53:24.841Z,8.30
2023-05-17T11:55:52.725Z,6.03
2023-05-17T11:58:24.157Z,8.60
2023-05-17T12:00:58.061Z,8.38
2023-05-17T12:03:28.829Z,8.23
2023-05-17T12:06:17.003Z,8.43
2023-05-17T12:08:45.956Z,9.20
2023-05-17T12:11:16.882Z,10.75
2023-05-17T12:13:46.854Z,10.43
2023-05-17T12:16:17.799Z,8.23
2023-05-17T12:18:49.677Z,8.50
2023-05-17T12:21:18.311Z,8.77
2023-05-17T12:23:48.860Z,10.90
2023-05-17T12:26:23.383Z,10.27
2023-05-17T12:28:54.441Z,8.77
2023-05-17T12:31:34.905Z,9.98
2023-05-17T12:34:09.181Z,10.88
2023-05-17T12:36:39.648Z,8.60
2023-05-17T12:39:09.851Z,9.07
2023-05-17T12:41:38.576Z,9.48
2023-05-17T12:44:15.157Z,9.70
2023-05-17T12:46:44.367Z,7.30
2023-05-17T12:49:12.333Z,8.48
2023-05-17T12:51:44.708Z,11.02
2023-05-17T12:54:14.182Z,16.25
2023-05-17T12:56:43.655Z,14.43
2023-05-17T12:59:18.454Z,14.15
2023-05-17T13:01:47.372Z,9.88
2023-05-17T13:04:15.744Z,11.00
2023-05-17T13:06:48.999Z,8.18
2023-05-17T13:09:18.596Z,6.22
2023-05-17T13:11:57.223Z,8.80
2023-05-17T13:14:41.985Z,10.63
2023-05-17T13:17:13.444Z,8.80
2023-05-17T13:19:41.013Z,13.68
2023-05-17T13:22:08.895Z,14.00
2023-05-17T13:24:37.821Z,17.50
2023-05-17T13:27:06.062Z,10.32
2023-05-17T13:29:40.247Z,7.18
2023-05-17T13:32:09.119Z,10.77
2023-05-17T13:34:36.439Z,12.35
2023-05-17T13:37:04.797Z,9.48
2023-05-17T13:39:32.157Z,6.85
2023-05-17T13:42:00.195Z,9.18
2023-05-17T13:44:28.015Z,8.63
2023-05-17T13:46:55.637Z,7.15
2023-05-17T13:49:22.959Z,12.70
2023-05-17T13:51:50.712Z,11.15
2023-05-17T13:54:20.175Z,8.95
2023-05-17T13:56:47.532Z,8.02
2023-05-17T13:59:15.979Z,9.50
2023-05-17T14:01:43.889Z,8.88
2023-05-17T14:04:11.751Z,9.20
2023-05-17T14:06:39.191Z,10.20
2023-05-17T14:09:06.664Z,11.50
2023-05-17T14:11:34.398Z,9.82
2023-05-17T14:14:01.742Z,6.25
2023-05-17T14:16:28.927Z,10.27
2023-05-17T14:18:56.359Z,7.35
2023-05-17T14:21:23.723Z,8.15
2023-05-17T14:23:51.024Z,8.60
2023-05-17T14:26:18.369Z,9.77
2023-05-17T14:28:45.627Z,9.20
2023-05-17T14:31:12.953Z,10.30
2023-05-17T14:33:40.315Z,8.18
2023-05-17T14:36:07.672Z,8.40
2023-05-17T14:38:35.046Z,7.30
2023-05-17T14:41:02.420Z,4.78
2023-05-17T14:43:29.837Z,8.48
2023-05-17T14:45:57.088Z,7.47
2023-05-17T14:48:24.552Z,6.68
2023-05-17T14:50:53.377Z,7.45
2023-05-17T14:53:21.130Z,6.32
2023-05-17T14:55:48.659Z,12.23
2023-05-17T14:58:15.978Z,9.38
2023-05-17T15:00:48.382Z,6.53
2023-05-17T15:03:21.934Z,8.55
2023-05-17T15:05:56.755Z,7.65
2023-05-17T15:08:24.030Z,6.85
2023-05-17T15:10:51.487Z,7.07
2023-05-17T15:13:18.864Z,6.75
2023-05-17T15:15:46.896Z,8.07
2023-05-17T15:18:14.815Z,8.02
2023-05-17T15:20:42.221Z,9.40
2023-05-17T15:23:09.589Z,7.05
2023-05-17T15:25:37.021Z,7.20
2023-05-17T15:28:04.595Z,8.43
2023-05-17T15:30:32.423Z,6.47
2023-05-17T15:33:01.362Z,8.05
2023-05-17T15:35:29.232Z,8.00
2023-05-17T15:37:58.707Z,7.03
2023-05-17T15:40:26.098Z,8.33
2023-05-17T15:42:53.430Z,10.25
2023-05-17T15:45:22.115Z,8.45
2023-05-17T15:47:49.719Z,7.18
2023-05-17T15:50:17.190Z,9.95
2023-05-17T15:52:44.553Z,8.48
2023-05-17T15:55:12.886Z,10.98
2023-05-17T15:57:42.696Z,6.85
2023-05-17T16:00:10.566Z,11.27
2023-05-17T16:02:37.918Z,8.70
2023-05-17T16:05:05.975Z,9.93
2023-05-17T16:07:33.337Z,13.35
2023-05-17T16:10:00.612Z,6.65
2023-05-17T16:12:28.103Z,7.95
2023-05-17T16:14:55.521Z,8.55
2023-05-17T16:17:22.863Z,9.57
2023-05-17T16:19:50.176Z,9.73
2023-05-17T16:22:17.641Z,11.43
2023-05-17T16:24:45.040Z,7.00
2023-05-17T16:27:12.332Z,7.95
2023-05-17T16:29:40.395Z,9.10
2023-05-17T16:32:08.553Z,10.85
2023-05-17T16:34:36.487Z,8.13
2023-05-17T16:37:05.244Z,10.25
2023-05-17T16:39:33.191Z,10.07
2023-05-17T16:42:00.776Z,7.53
2023-05-17T16:44:28.138Z,6.78
2023-05-17T16:46:55.516Z,7.00
2023-05-17T16:49:22.859Z,8.93
2023-05-17T16:51:51.917Z,11.82
2023-05-17T16:54:19.666Z,7.78
2023-05-17T16:56:46.943Z,12.60
2023-05-17T16:59:15.837Z,11.98
2023-05-17T17:01:43.193Z,11.10
2023-05-17T17:04:10.588Z,15.27
2023-05-17T17:06:38.191Z,14.68
2023-05-17T17:09:08.347Z,10.48
2023-05-17T17:14:03.071Z,12.85
2023-05-17T17:16:31.703Z,7.97
2023-05-17T17:18:59.569Z,10.98
2023-05-17T17:21:26.999Z,12.73
2023-05-17T17:23:54.377Z,11.73
2023-05-17T17:26:22.081Z,12.30
2023-05-17T17:28:49.445Z,10.63
2023-05-17T17:31:18.269Z,8.73
2023-05-17T17:33:46.032Z,8.82
2023-05-17T17:36:13.523Z,10.77
2023-05-17T17:38:40.833Z,11.18
2023-05-17T17:41:08.137Z,9.63
2023-05-17T17:43:35.793Z,8.65
2023-05-17T17:46:03.448Z,9.15
2023-05-17T17:48:30.740Z,14.00
2023-05-17T17:50:59.138Z,9.50
2023-05-17T17:53:26.608Z,10.80
2023-05-17T17:55:53.909Z,8.90
2023-05-17T17:58:21.262Z,10.20
2023-05-17T18:00:48.690Z,11.88
2023-05-17T18:03:16.349Z,10.00
2023-05-17T18:05:43.769Z,8.20
2023-05-17T18:08:11.577Z,9.63
2023-05-17T18:10:38.911Z,23.02
2023-05-17T18:13:06.120Z,13.18
2023-05-17T18:15:33.406Z,7.05
2023-05-17T18:18:00.789Z,11.68
2023-05-17T18:20:28.243Z,8.70
2023-05-17T18:22:55.759Z,7.38
2023-05-17T18:25:23.011Z,9.88
2023-05-17T18:27:50.534Z,7.45
2023-05-17T18:30:18.587Z,8.32
2023-05-17T18:32:46.192Z,7.60
2023-05-17T18:35:13.698Z,11.00
2023-05-17T18:37:40.925Z,9.20
2023-05-17T18:40:08.664Z,9.48
2023-05-17T18:42:35.999Z,16.35
2023-05-17T18:45:04.341Z,9.27
2023-05-17T18:47:31.794Z,9.05
2023-05-17T18:49:59.619Z,10.98
2023-05-17T18:52:26.925Z,11.88
2023-05-17T18:54:54.204Z,9.25
2023-05-17T18:57:21.557Z,7.65
2023-05-17T18:59:49.069Z,7.85
2023-05-17T19:02:16.440Z,9.48
2023-05-17T19:04:44.129Z,8.20
2023-05-17T19:07:11.555Z,9.65
2023-05-17T19:09:38.907Z,10.57
2023-05-17T19:12:06.754Z,12.95
2023-05-17T19:14:34.069Z,9.18
2023-05-17T19:17:02.673Z,10.60
2023-05-17T19:19:31.334Z,7.47
2023-05-17T19:22:00.708Z,7.38
2023-05-17T19:24:29.069Z,9.75
2023-05-17T19:26:56.400Z,10.10
2023-05-17T19:29:23.838Z,8.90
2023-05-17T19:31:51.383Z,14.05
2023-05-17T19:34:18.722Z,10.82
2023-05-17T19:36:46.107Z,9.88
2023-05-17T19:39:13.446Z,8.68
2023-05-17T19:41:41.201Z,12.05
2023-05-17T19:44:08.589Z,9.80
2023-05-17T19:46:36.082Z,8.93
2023-05-17T19:49:03.622Z,9.32
2023-05-17T19:51:31.680Z,8.68
2023-05-17T19:53:58.933Z,11.65
2023-05-17T19:56:26.320Z,12.38
2023-05-17T19:58:54.199Z,8.82
2023-05-17T20:01:21.897Z,11.95
2023-05-17T20:03:49.463Z,14.05
2023-05-17T20:06:16.842Z,14.90
2023-05-17T20:08:45.107Z,14.75
2023-05-17T20:11:12.731Z,12.40
2023-05-17T20:13:40.447Z,15.45
2023-05-17T20:16:14.860Z,11.73
2023-05-17T20:18:43.808Z,11.98
2023-05-17T20:21:15.077Z,13.80
2023-05-17T20:23:42.784Z,13.05
2023-05-17T20:26:16.584Z,12.30
2023-05-17T20:28:44.648Z,14.20
2023-05-17T20:31:12.165Z,11.38
2023-05-17T20:33:39.579Z,9.95
2023-05-17T20:36:07.114Z,13.20
2023-05-17T20:38:34.342Z,15.35
2023-05-17T20:41:01.774Z,18.50
2023-05-17T20:43:29.632Z,12.80
2023-05-17T20:45:56.988Z,14.93
2023-05-17T20:48:24.317Z,13.82
2023-05-17T20:50:51.636Z,10.43
2023-05-17T20:53:19.422Z,12.88
2023-05-17T20:55:46.704Z,10.00
2023-05-17T20:58:13.928Z,7.68
2023-05-17T21:00:41.463Z,11.75
2023-05-17T21:03:11.694Z,9.35
2023-05-17T21:08:07.432Z,10.93
2023-05-17T21:10:38.132Z,11.73
2023-05-17T21:13:06.136Z,7.20
2023-05-17T21:15:33.534Z,10.50
2023-05-17T21:18:01.097Z,9.15
2023-05-17T21:20:28.475Z,10.88
2023-05-17T21:22:55.881Z,14.63
2023-05-17T21:25:23.285Z,12.35
2023-05-17T21:27:51.380Z,11.60
2023-05-17T21:30:18.985Z,15.90
2023-05-17T21:32:46.327Z,11.38
2023-05-17T21:35:13.753Z,12.63
2023-05-17T21:37:42.134Z,15.20
2023-05-17T21:40:10.168Z,10.63
2023-05-17T21:42:37.524Z,10.45
2023-05-17T21:45:05.404Z,12.23
2023-05-17T21:47:32.764Z,11.10
2023-05-17T21:50:00.117Z,9.60
2023-05-17T21:52:27.586Z,11.75
2023-05-17T21:54:54.957Z,15.48
2023-05-17T21:57:23.306Z,12.20
2023-05-17T21:59:51.189Z,16.20
2023-05-17T22:02:18.686Z,13.43
2023-05-17T22:04:46.033Z,10.90
2023-05-17T22:07:14.064Z,10.18
2023-05-17T22:09:41.489Z,10.70
2023-05-17T22:12:09.358Z,9.57
2023-05-17T22:14:36.800Z,10.77
2023-05-17T22:17:08.523Z,11.30
2023-05-17T22:19:41.325Z,11.13
2023-05-17T22:22:08.714Z,8.48
2023-05-17T22:24:36.232Z,10.55
2023-05-17T22:27:03.865Z,10.88
2023-05-17T22:29:31.265Z,14.77
2023-05-17T22:31:58.813Z,9.23
2023-05-17T22:34:26.397Z,10.13
2023-05-17T22:36:55.103Z,13.25
2023-05-17T22:39:22.429Z,14.52
2023-05-17T22:41:49.796Z,14.38
2023-05-17T22:44:17.064Z,13.65
2023-05-17T22:46:46.771Z,12.38
2023-05-17T22:49:14.192Z,9.88
2023-05-17T22:51:42.578Z,10.50
2023-05-17T22:54:09.949Z,9.82
2023-05-17T22:56:37.248Z,14.63
2023-05-17T22:59:04.844Z,10.73
2023-05-17T23:01:32.163Z,12.35
2023-05-17T23:03:59.572Z,11.52
2023-05-17T23:06:26.939Z,10.52
2023-05-17T23:08:55.017Z,10.02
2023-05-17T23:11:22.356Z,10.93
2023-05-17T23:13:49.683Z,11.70
2023-05-17T23:16:17.949Z,14.02
2023-05-17T23:18:46.425Z,10.70
2023-05-17T23:21:13.875Z,10.63
2023-05-17T23:23:41.146Z,12.13
2023-05-17T23:26:08.473Z,14.45
2023-05-17T23:28:37.741Z,11.63
2023-05-17T23:31:05.819Z,13.17
2023-05-17T23:33:33.280Z,10.48
2023-05-17T23:36:00.583Z,10.98
2023-05-17T23:38:27.954Z,11.20
2023-05-17T23:40:56.387Z,13.20
2023-05-17T23:43:23.628Z,8.60
2023-05-17T23:45:51.325Z,8.90
2023-05-17T23:48:20.734Z,9.63
2023-05-17T23:50:48.131Z,12.67
2023-05-17T23:53:18.447Z,10.95
2023-05-17T23:55:46.190Z,12.88
2023-05-17T23:58:13.438Z,9.15
